createdAt,value
2022-09-15T00:00:19.926Z,38.00
2022-09-15T00:02:50.771Z,41.00
2022-09-15T00:05:21.051Z,36.50
2022-09-15T00:07:51.662Z,39.00
2022-09-15T00:10:21.762Z,43.50
2022-09-15T00:12:51.750Z,35.00
2022-09-15T00:15:21.674Z,37.75
2022-09-15T00:17:54.065Z,43.33
2022-09-15T00:20:24.638Z,41.50
2022-09-15T00:22:54.805Z,41.00
2022-09-15T00:25:24.830Z,48.00
2022-09-15T00:27:54.778Z,36.00
2022-09-15T00:30:24.719Z,38.00
2022-09-15T00:32:55.763Z,39.25
2022-09-15T00:35:26.363Z,38.75
2022-09-15T00:37:57.776Z,31.75
2022-09-15T00:43:01.655Z,35.25
2022-09-15T00:45:32.993Z,37.75
2022-09-15T00:48:15.185Z,38.00
2022-09-15T00:50:53.122Z,38.25
2022-09-15T00:53:25.205Z,42.50
2022-09-15T00:55:57.743Z,42.75
2022-09-15T00:59:02.809Z,36.33
2022-09-15T01:01:35.182Z,39.50
2022-09-15T01:04:06.106Z,40.25
2022-09-15T01:06:52.381Z,41.00
2022-09-15T01:09:32.599Z,37.00
2022-09-15T01:12:03.165Z,40.50
2022-09-15T01:14:33.539Z,34.50
2022-09-15T01:17:29.401Z,38.75
2022-09-15T01:20:39.188Z,42.33
2022-09-15T01:23:58.695Z,42.00
2022-09-15T01:26:40.575Z,32.67
2022-09-15T01:29:28.897Z,39.50
2022-09-15T01:32:45.210Z,43.50
2022-09-15T01:35:41.063Z,42.75
2022-09-15T01:38:34.960Z,43.00
2022-09-15T01:41:29.958Z,40.75
2022-09-15T01:44:18.488Z,39.33
2022-09-15T01:46:52.510Z,39.50
2022-09-15T01:49:27.571Z,43.00
2022-09-15T01:51:58.186Z,44.00
2022-09-15T01:54:38.865Z,40.00
2022-09-15T01:57:09.437Z,42.50
2022-09-15T01:59:39.471Z,41.67
2022-09-15T02:02:22.627Z,48.75
2022-09-15T02:05:02.240Z,48.25
2022-09-15T02:07:58.846Z,42.00
2022-09-15T02:10:52.612Z,40.75
2022-09-15T02:13:33.603Z,42.25
2022-09-15T02:16:03.807Z,45.00
2022-09-15T02:18:49.459Z,41.75
2022-09-15T02:21:25.484Z,43.75
2022-09-15T02:24:04.722Z,35.75
2022-09-15T02:26:37.160Z,40.75
2022-09-15T02:29:13.791Z,42.00
2022-09-15T02:31:51.763Z,41.25
2022-09-15T02:34:29.172Z,39.00
2022-09-15T02:36:59.728Z,47.00
2022-09-15T02:39:36.066Z,37.67
2022-09-15T02:42:06.928Z,37.33
2022-09-15T02:44:38.274Z,42.00
2022-09-15T02:47:08.939Z,43.50
2022-09-15T02:49:39.483Z,36.75
2022-09-15T02:54:40.589Z,37.25
2022-09-15T02:57:11.234Z,38.00
2022-09-15T02:59:59.269Z,39.25
2022-09-15T03:02:29.505Z,38.75
2022-09-15T03:05:00.008Z,37.00
2022-09-15T03:07:30.175Z,42.00
2022-09-15T03:10:00.448Z,36.50
2022-09-15T03:12:31.696Z,42.25
2022-09-15T03:15:01.719Z,39.50
2022-09-15T03:17:36.191Z,36.00
2022-09-15T03:20:09.307Z,35.25
2022-09-15T03:22:39.817Z,31.00
2022-09-15T03:25:12.243Z,31.75
2022-09-15T03:27:43.608Z,35.50
2022-09-15T03:30:17.449Z,39.00
2022-09-15T03:32:47.661Z,39.25
2022-09-15T03:35:17.791Z,42.00
2022-09-15T03:37:47.738Z,38.67
2022-09-15T03:40:18.773Z,41.00
2022-09-15T03:42:49.079Z,42.00
2022-09-15T03:45:23.075Z,37.75
2022-09-15T03:47:56.620Z,39.25
2022-09-15T03:50:26.519Z,33.50
2022-09-15T03:52:58.800Z,38.50
2022-09-15T03:55:30.189Z,37.25
2022-09-15T03:58:00.371Z,37.75
2022-09-15T04:00:30.618Z,41.75
2022-09-15T04:03:00.626Z,35.00
2022-09-15T04:05:30.877Z,40.33
2022-09-15T04:08:01.363Z,39.00
2022-09-15T04:10:32.701Z,41.00
2022-09-15T04:13:02.701Z,36.75
2022-09-15T04:15:32.595Z,37.33
2022-09-15T04:18:02.709Z,35.25
2022-09-15T04:20:34.154Z,38.00
2022-09-15T04:23:04.143Z,42.00
2022-09-15T04:25:34.177Z,41.75
2022-09-15T04:28:04.326Z,36.50
2022-09-15T04:30:34.692Z,42.00
2022-09-15T04:33:04.910Z,41.50
2022-09-15T04:35:35.379Z,44.25
2022-09-15T04:38:05.435Z,38.25
2022-09-15T04:40:35.555Z,39.00
2022-09-15T04:43:06.107Z,39.00
2022-09-15T04:45:36.226Z,40.00
2022-09-15T04:48:06.631Z,39.00
2022-09-15T04:50:36.697Z,35.25
2022-09-15T04:53:06.714Z,37.75
2022-09-15T04:55:37.253Z,39.33
2022-09-15T04:58:07.701Z,30.25
2022-09-15T05:00:46.042Z,41.50
2022-09-15T05:03:16.777Z,31.25
2022-09-15T05:05:47.887Z,34.25
2022-09-15T05:08:18.142Z,30.25
2022-09-15T05:10:48.416Z,31.25
2022-09-15T05:13:18.649Z,36.50
2022-09-15T05:15:48.941Z,34.50
2022-09-15T05:18:19.335Z,35.00
2022-09-15T05:23:20.266Z,31.75
2022-09-15T05:26:01.899Z,32.25
2022-09-15T05:28:38.938Z,30.00
2022-09-15T05:31:16.586Z,34.50
2022-09-15T05:33:49.344Z,30.75
2022-09-15T05:36:22.421Z,34.25
2022-09-15T05:38:58.392Z,31.50
2022-09-15T05:44:04.472Z,31.67
2022-09-15T05:46:34.954Z,40.50
2022-09-15T05:51:35.371Z,34.25
2022-09-15T05:54:05.561Z,34.75
2022-09-15T05:56:37.040Z,38.33
2022-09-15T05:59:07.615Z,38.75
2022-09-15T06:01:38.979Z,33.50
2022-09-15T06:04:10.828Z,35.00
2022-09-15T06:06:41.952Z,32.00
2022-09-15T06:09:12.949Z,35.25
2022-09-15T06:11:43.880Z,28.75
2022-09-15T06:14:15.692Z,31.00
2022-09-15T06:16:47.033Z,40.75
2022-09-15T06:19:17.771Z,30.00
2022-09-15T06:21:48.911Z,30.25
2022-09-15T06:24:20.619Z,31.25
2022-09-15T06:26:52.733Z,27.00
2022-09-15T06:31:53.691Z,28.00
2022-09-15T06:34:24.734Z,34.00
2022-09-15T06:36:55.559Z,30.00
2022-09-15T06:39:26.231Z,35.00
2022-09-15T06:42:02.784Z,30.00
2022-09-15T06:44:34.936Z,34.75
2022-09-15T06:47:06.688Z,32.25
2022-09-15T06:49:37.384Z,23.50
2022-09-15T06:52:08.865Z,17.75
2022-09-15T06:54:40.372Z,28.50
2022-09-15T06:57:11.957Z,33.33
2022-09-15T06:59:44.219Z,36.00
2022-09-15T07:02:18.930Z,26.00
2022-09-15T07:04:52.779Z,23.00
2022-09-15T07:07:23.594Z,29.33
2022-09-15T07:09:54.356Z,26.25
2022-09-15T07:12:28.638Z,24.25
2022-09-15T07:15:01.150Z,24.25
2022-09-15T07:17:31.881Z,29.75
2022-09-15T07:20:03.524Z,25.75
2022-09-15T07:22:34.550Z,29.50
2022-09-15T07:25:09.012Z,34.50
2022-09-15T07:27:40.508Z,32.25
2022-09-15T07:30:11.908Z,30.00
2022-09-15T07:32:44.235Z,33.00
2022-09-15T07:35:15.147Z,32.33
2022-09-15T07:37:46.028Z,20.00
2022-09-15T07:40:18.105Z,22.50
2022-09-15T07:42:48.706Z,24.50
2022-09-15T07:45:19.587Z,25.00
2022-09-15T07:47:54.543Z,30.50
2022-09-15T07:50:25.571Z,22.50
2022-09-15T07:52:59.523Z,17.25
2022-09-15T07:55:32.749Z,23.00
2022-09-15T07:58:04.481Z,27.50
2022-09-15T08:00:34.857Z,31.50
2022-09-15T08:03:06.343Z,26.25
2022-09-15T08:05:40.338Z,23.50
2022-09-15T08:08:13.182Z,22.00
2022-09-15T08:10:44.419Z,23.00
2022-09-15T08:13:14.819Z,18.00
2022-09-15T08:15:45.253Z,16.00
2022-09-15T08:18:16.529Z,18.50
2022-09-15T08:20:47.294Z,24.50
2022-09-15T08:23:17.896Z,22.25
2022-09-15T08:25:49.449Z,20.00
2022-09-15T08:28:20.103Z,15.00
2022-09-15T08:30:50.559Z,28.00
2022-09-15T08:33:20.974Z,25.00
2022-09-15T08:35:51.515Z,28.33
2022-09-15T08:38:21.907Z,18.00
2022-09-15T08:40:59.656Z,21.00
2022-09-15T08:43:37.368Z,30.00
2022-09-15T08:46:17.923Z,25.50
2022-09-15T08:49:04.257Z,22.25
2022-09-15T08:51:50.042Z,27.67
2022-09-15T08:54:28.141Z,21.25
2022-09-15T08:57:00.246Z,27.50
2022-09-15T08:59:36.720Z,23.67
2022-09-15T09:02:34.212Z,20.50
2022-09-15T09:05:13.629Z,18.50
2022-09-15T09:08:34.395Z,27.75
2022-09-15T09:14:15.008Z,30.00
2022-09-15T09:16:58.076Z,27.00
2022-09-15T09:19:50.078Z,24.50
2022-09-15T09:22:26.314Z,20.50
2022-09-15T09:25:11.635Z,20.00
2022-09-15T09:27:52.235Z,17.00
2022-09-15T09:30:25.435Z,32.67
2022-09-15T09:33:16.935Z,21.75
2022-09-15T09:35:56.589Z,26.75
2022-09-15T09:38:37.172Z,29.00
2022-09-15T09:41:13.769Z,32.50
2022-09-15T09:43:47.669Z,24.50
2022-09-15T09:46:21.514Z,25.50
2022-09-15T09:49:13.959Z,23.00
2022-09-15T09:52:03.627Z,20.25
2022-09-15T09:54:36.764Z,32.00
2022-09-15T09:57:17.150Z,31.00
2022-09-15T09:59:52.059Z,25.33
2022-09-15T10:02:25.944Z,28.50
2022-09-15T10:05:08.729Z,29.75
2022-09-15T10:07:47.147Z,32.00
2022-09-15T10:10:33.525Z,36.67
2022-09-15T10:13:06.074Z,39.33
2022-09-15T10:15:38.478Z,33.75
2022-09-15T10:18:08.982Z,32.50
2022-09-15T10:20:57.911Z,27.00
2022-09-15T10:23:33.427Z,29.75
2022-09-15T10:26:18.535Z,29.25
2022-09-15T10:29:14.047Z,36.00
2022-09-15T10:31:46.051Z,25.00
2022-09-15T10:34:29.337Z,26.33
2022-09-15T10:37:31.074Z,23.67
2022-09-15T10:40:02.952Z,26.75
2022-09-15T10:42:44.585Z,28.00
2022-09-15T10:45:22.356Z,25.00
2022-09-15T10:48:10.646Z,26.75
2022-09-15T10:51:18.959Z,34.25
2022-09-15T10:53:58.172Z,27.50
2022-09-15T10:56:50.858Z,25.00
2022-09-15T10:59:33.446Z,21.67
2022-09-15T11:02:37.668Z,29.50
2022-09-15T11:05:45.604Z,25.50
2022-09-15T11:08:43.193Z,30.00
2022-09-15T11:11:40.775Z,25.33
2022-09-15T11:14:28.879Z,23.75
2022-09-15T11:17:38.997Z,27.67
2022-09-15T11:20:20.852Z,27.67
2022-09-15T11:23:15.352Z,28.33
2022-09-15T11:25:50.523Z,28.00
2022-09-15T11:28:30.092Z,35.25
2022-09-15T11:33:47.149Z,29.50
2022-09-15T11:39:04.206Z,32.75
2022-09-15T11:41:50.992Z,28.00
2022-09-15T11:44:52.520Z,29.50
2022-09-15T11:47:26.116Z,17.67
2022-09-15T11:50:28.144Z,27.00
2022-09-15T11:53:19.415Z,19.33
2022-09-15T11:55:55.804Z,30.33
2022-09-15T11:58:29.984Z,26.00
2022-09-15T12:01:12.767Z,26.25
2022-09-15T12:04:07.019Z,30.75
2022-09-15T12:07:25.091Z,33.00
2022-09-15T12:09:55.549Z,26.00
2022-09-15T12:12:30.665Z,38.00
2022-09-15T12:15:02.768Z,28.25
2022-09-15T12:17:49.770Z,29.67
2022-09-15T12:20:37.764Z,28.00
2022-09-15T12:23:23.534Z,26.00
2022-09-15T12:26:15.677Z,26.50
2022-09-15T12:29:04.469Z,31.00
2022-09-15T12:31:41.737Z,25.00
2022-09-15T12:34:27.963Z,25.75
2022-09-15T12:37:20.872Z,31.00
2022-09-15T12:39:51.556Z,29.75
2022-09-15T12:42:23.899Z,30.00
2022-09-15T12:45:00.885Z,30.00
2022-09-15T12:47:53.028Z,34.00
2022-09-15T12:50:36.795Z,27.00
2022-09-15T12:53:31.019Z,26.50
2022-09-15T12:56:06.460Z,26.00
2022-09-15T12:58:49.988Z,31.25
2022-09-15T13:01:27.143Z,32.25
2022-09-15T13:04:01.391Z,34.00
2022-09-15T13:06:35.606Z,31.00
2022-09-15T13:09:08.729Z,32.75
2022-09-15T13:11:53.496Z,31.75
2022-09-15T13:14:23.984Z,29.75
2022-09-15T13:17:04.521Z,26.00
2022-09-15T13:22:15.874Z,31.33
2022-09-15T13:25:01.400Z,33.50
2022-09-15T13:27:47.457Z,22.67
2022-09-15T13:33:03.000Z,26.75
2022-09-15T13:35:54.340Z,32.67
2022-09-15T13:38:48.754Z,34.00
2022-09-15T13:41:41.756Z,33.33
2022-09-15T13:44:36.655Z,34.25
2022-09-15T13:47:28.656Z,35.00
2022-09-15T13:50:25.857Z,33.33
2022-09-15T13:53:25.734Z,35.33
2022-09-15T13:55:57.828Z,31.00
2022-09-15T14:01:24.452Z,43.50
2022-09-15T14:04:22.198Z,40.25
2022-09-15T14:09:46.127Z,30.33
2022-09-15T14:12:20.221Z,32.75
2022-09-15T14:14:59.351Z,36.50
2022-09-15T14:17:33.150Z,33.33
2022-09-15T14:20:07.497Z,32.00
2022-09-15T14:22:42.632Z,34.00
2022-09-15T14:25:21.140Z,40.00
2022-09-15T14:27:54.526Z,39.75
2022-09-15T14:30:36.546Z,38.00
2022-09-15T14:33:08.508Z,35.25
2022-09-15T14:35:39.962Z,43.75
2022-09-15T14:38:27.946Z,44.75
2022-09-15T14:41:00.812Z,43.00
2022-09-15T14:43:41.586Z,44.75
2022-09-15T14:46:22.617Z,37.00
2022-09-15T14:48:53.392Z,37.67
2022-09-15T14:51:27.337Z,36.25
2022-09-15T14:54:02.331Z,34.25
2022-09-15T14:56:39.033Z,36.67
2022-09-15T14:59:53.135Z,38.75
2022-09-15T15:02:49.367Z,39.25
2022-09-15T15:05:25.746Z,39.00
2022-09-15T15:07:58.250Z,38.00
2022-09-15T15:10:36.093Z,38.00
2022-09-15T15:13:20.285Z,36.33
2022-09-15T15:15:51.032Z,37.25
2022-09-15T15:18:43.201Z,36.75
2022-09-15T15:21:45.100Z,36.25
2022-09-15T15:24:15.375Z,41.50
2022-09-15T15:26:52.633Z,38.25
2022-09-15T15:29:45.773Z,37.50
2022-09-15T15:32:23.706Z,38.50
2022-09-15T15:35:02.485Z,34.75
2022-09-15T15:37:35.947Z,35.25
2022-09-15T15:40:15.846Z,40.67
2022-09-15T15:42:57.903Z,36.50
2022-09-15T15:45:32.815Z,45.00
2022-09-15T15:48:06.302Z,44.67
2022-09-15T15:50:37.027Z,41.75
2022-09-15T15:53:07.610Z,40.75
2022-09-15T15:55:45.426Z,45.00
2022-09-15T16:00:58.099Z,39.00
2022-09-15T16:03:29.157Z,42.00
2022-09-15T16:06:04.598Z,39.25
2022-09-15T16:08:41.634Z,41.75
2022-09-15T16:11:15.139Z,45.00
2022-09-15T16:13:46.096Z,43.00
2022-09-15T16:16:21.226Z,38.75
2022-09-15T16:18:52.883Z,33.33
2022-09-15T16:21:31.831Z,40.67
2022-09-15T16:24:03.019Z,38.33
2022-09-15T16:26:35.994Z,38.50
2022-09-15T16:29:08.239Z,44.50
2022-09-15T16:31:40.061Z,42.50
2022-09-15T16:34:19.208Z,41.75
2022-09-15T16:36:50.009Z,46.33
2022-09-15T16:39:21.884Z,41.00
2022-09-15T16:41:52.599Z,42.00
2022-09-15T16:44:23.438Z,41.33
2022-09-15T16:46:55.281Z,42.67
2022-09-15T16:49:25.898Z,42.75
2022-09-15T16:51:57.090Z,42.00
2022-09-15T16:54:27.465Z,42.25
2022-09-15T16:56:57.533Z,48.25
2022-09-15T16:59:28.610Z,42.00
2022-09-15T17:01:59.188Z,36.00
2022-09-15T17:04:29.381Z,37.00
2022-09-15T17:07:00.464Z,41.50
2022-09-15T17:09:31.160Z,39.00
2022-09-15T17:12:01.469Z,42.67
2022-09-15T17:14:31.549Z,41.25
2022-09-15T17:17:01.509Z,43.25
2022-09-15T17:19:31.473Z,43.75
2022-09-15T17:22:01.406Z,43.00
2022-09-15T17:24:31.350Z,41.25
2022-09-15T17:27:02.426Z,38.50
2022-09-15T17:29:32.917Z,38.50
2022-09-15T17:32:04.788Z,36.25
2022-09-15T17:37:04.884Z,40.33
2022-09-15T17:39:36.447Z,42.50
2022-09-15T17:42:06.469Z,41.75
2022-09-15T17:44:37.755Z,43.33
2022-09-15T17:47:08.405Z,44.25
2022-09-15T17:49:38.583Z,39.00
2022-09-15T17:52:13.380Z,39.00
2022-09-15T17:54:44.061Z,38.25
2022-09-15T17:57:14.422Z,42.00
2022-09-15T17:59:44.625Z,43.50
2022-09-15T18:02:20.344Z,39.00
2022-09-15T18:04:51.041Z,35.50
2022-09-15T18:07:21.212Z,39.75
2022-09-15T18:09:51.199Z,35.25
2022-09-15T18:12:21.647Z,34.00
2022-09-15T18:14:52.287Z,35.50
2022-09-15T18:17:22.287Z,40.75
2022-09-15T18:19:53.651Z,73.25
2022-09-15T18:22:24.931Z,35.75
2022-09-15T18:24:55.177Z,39.75
2022-09-15T18:27:25.205Z,39.25
2022-09-15T18:29:54.510Z,40.25
2022-09-15T18:32:24.377Z,42.00
2022-09-15T18:34:54.384Z,39.25
2022-09-15T18:37:24.318Z,42.67
2022-09-15T18:39:54.417Z,38.00
2022-09-15T18:42:27.234Z,41.50
2022-09-15T18:44:59.981Z,45.00
2022-09-15T18:47:29.971Z,42.00
2022-09-15T18:50:00.007Z,42.00
2022-09-15T18:52:30.077Z,41.50
2022-09-15T18:55:01.080Z,37.25
2022-09-15T18:57:31.040Z,37.33
2022-09-15T19:00:00.944Z,41.00
2022-09-15T19:02:31.136Z,38.75
2022-09-15T19:05:01.093Z,42.00
2022-09-15T19:07:31.055Z,45.33
2022-09-15T19:10:01.968Z,40.25
2022-09-15T19:12:33.163Z,44.75
2022-09-15T19:15:04.256Z,43.33
2022-09-15T19:17:35.251Z,42.50
2022-09-15T19:20:09.504Z,44.00
2022-09-15T19:22:40.873Z,43.75
2022-09-15T19:25:12.856Z,40.50
2022-09-15T19:27:43.200Z,42.00
2022-09-15T19:30:14.165Z,43.50
2022-09-15T19:32:45.093Z,36.75
2022-09-15T19:35:15.796Z,45.75
2022-09-15T19:37:45.946Z,42.50
2022-09-15T19:40:17.142Z,45.50
2022-09-15T19:45:17.319Z,42.33
2022-09-15T19:47:47.252Z,42.25
2022-09-15T19:50:17.204Z,44.00
2022-09-15T19:52:47.123Z,39.75
2022-09-15T19:55:19.451Z,42.00
2022-09-15T19:57:50.176Z,40.75
2022-09-15T20:00:20.580Z,44.00
2022-09-15T20:02:51.001Z,39.25
2022-09-15T20:05:33.712Z,45.75
2022-09-15T20:08:04.982Z,43.00
2022-09-15T20:10:35.166Z,43.00
2022-09-15T20:13:05.048Z,48.00
2022-09-15T20:15:34.948Z,47.25
2022-09-15T20:18:05.520Z,45.00
2022-09-15T20:20:37.444Z,42.25
2022-09-15T20:23:10.019Z,44.25
2022-09-15T20:25:40.585Z,45.00
2022-09-15T20:28:10.525Z,44.25
2022-09-15T20:30:40.870Z,36.50
2022-09-15T20:33:11.268Z,40.67
2022-09-15T20:38:10.466Z,42.25
2022-09-15T20:40:40.395Z,45.00
2022-09-15T20:43:10.358Z,42.75
2022-09-15T20:45:41.384Z,41.33
2022-09-15T20:48:11.783Z,42.50
2022-09-15T20:50:41.784Z,42.33
2022-09-15T20:55:41.182Z,44.00
2022-09-15T20:58:12.200Z,39.00
2022-09-15T21:00:42.828Z,44.50
2022-09-15T21:03:12.718Z,40.00
2022-09-15T21:05:46.536Z,38.25
2022-09-15T21:08:16.849Z,39.75
2022-09-15T21:10:48.152Z,42.50
2022-09-15T21:15:59.097Z,47.00
2022-09-15T21:18:34.707Z,40.50
2022-09-15T21:21:14.397Z,41.25
2022-09-15T21:23:50.959Z,38.00
2022-09-15T21:26:25.858Z,39.75
2022-09-15T21:28:57.422Z,41.25
2022-09-15T21:31:30.249Z,38.00
2022-09-15T21:34:01.399Z,38.50
2022-09-15T21:36:32.623Z,41.50
2022-09-15T21:39:04.747Z,44.00
2022-09-15T21:41:34.948Z,45.75
2022-09-15T21:44:05.564Z,45.50
2022-09-15T21:46:35.468Z,40.50
2022-09-15T21:49:05.399Z,35.50
2022-09-15T21:51:35.296Z,35.33
2022-09-15T21:54:06.188Z,40.50
2022-09-15T21:59:06.334Z,42.33
2022-09-15T22:01:37.141Z,39.75
2022-09-15T22:04:09.647Z,38.00
2022-09-15T22:06:41.949Z,41.33
2022-09-15T22:09:16.020Z,40.25
2022-09-15T22:11:46.705Z,41.67
2022-09-15T22:14:17.173Z,43.25
2022-09-15T22:16:47.368Z,44.25
2022-09-15T22:19:17.518Z,44.25
2022-09-15T22:21:47.627Z,43.25
2022-09-15T22:24:17.628Z,44.00
2022-09-15T22:26:47.501Z,44.25
2022-09-15T22:29:17.457Z,41.75
2022-09-15T22:31:47.605Z,42.67
2022-09-15T22:34:17.679Z,42.00
2022-09-15T22:36:47.654Z,47.25
2022-09-15T22:39:17.615Z,40.00
2022-09-15T22:41:47.606Z,39.25
2022-09-15T22:44:22.530Z,40.00
2022-09-15T22:46:53.622Z,45.00
2022-09-15T22:49:24.017Z,40.25
2022-09-15T22:51:54.102Z,38.25
2022-09-15T22:56:53.354Z,41.67
2022-09-15T22:59:23.642Z,42.25
2022-09-15T23:01:53.967Z,43.25
2022-09-15T23:04:24.189Z,43.50
2022-09-15T23:06:54.265Z,42.00
2022-09-15T23:09:24.331Z,43.00
2022-09-15T23:11:54.581Z,42.50
2022-09-15T23:14:25.183Z,42.50
2022-09-15T23:16:56.878Z,43.75
2022-09-15T23:19:27.199Z,31.33
2022-09-15T23:21:58.726Z,44.25
2022-09-15T23:24:29.523Z,47.00
2022-09-15T23:27:00.327Z,40.00
2022-09-15T23:29:30.526Z,41.75
2022-09-15T23:32:00.889Z,43.50
2022-09-15T23:34:30.849Z,44.25
2022-09-15T23:37:00.936Z,47.00
2022-09-15T23:39:31.591Z,68.33
2022-09-15T23:42:02.231Z,48.75
2022-09-15T23:44:32.323Z,48.50
2022-09-15T23:47:02.362Z,42.00
2022-09-15T23:49:32.464Z,45.75
2022-09-15T23:52:02.666Z,42.00
2022-09-15T23:54:32.571Z,42.00
2022-09-15T23:57:02.482Z,43.00
2022-09-15T23:59:32.446Z,45.00
